createdAt,value
2022-12-03T00:00:17.135Z,6.73
2022-12-03T00:02:44.135Z,6.57
2022-12-03T00:05:11.300Z,7.69
2022-12-03T00:07:38.429Z,8.02
2022-12-03T00:10:06.392Z,8.34
2022-12-03T00:12:33.303Z,8.22
2022-12-03T00:15:00.204Z,8.02
2022-12-03T00:17:27.065Z,8.16
2022-12-03T00:19:53.775Z,7.22
2022-12-03T00:22:20.643Z,7.83
2022-12-03T00:24:47.531Z,7.56
2022-12-03T00:27:14.413Z,7.42
2022-12-03T00:29:41.286Z,7.01
2022-12-03T00:32:08.144Z,7.40
2022-12-03T00:34:34.823Z,6.99
2022-12-03T00:37:01.756Z,7.71
2022-12-03T00:39:28.691Z,8.03
2022-12-03T00:41:55.564Z,7.81
2022-12-03T00:44:22.455Z,8.18
2022-12-03T00:46:49.416Z,8.17
2022-12-03T00:49:16.293Z,9.04
2022-12-03T00:51:42.950Z,8.26
2022-12-03T00:54:09.842Z,8.03
2022-12-03T00:56:36.681Z,8.67
2022-12-03T00:59:03.389Z,8.59
2022-12-03T01:01:30.397Z,9.22
2022-12-03T01:03:57.327Z,9.22
2022-12-03T01:06:24.230Z,8.61
2022-12-03T01:08:51.130Z,7.94
2022-12-03T01:11:36.477Z,8.36
2022-12-03T01:14:04.395Z,8.27
2022-12-03T01:16:31.353Z,7.88
2022-12-03T01:18:58.261Z,7.82
2022-12-03T01:21:25.136Z,7.65
2022-12-03T01:23:52.044Z,7.81
2022-12-03T01:26:18.896Z,7.53
2022-12-03T01:28:45.594Z,7.82
2022-12-03T01:31:31.229Z,7.54
2022-12-03T01:33:58.160Z,8.30
2022-12-03T01:36:25.055Z,8.05
2022-12-03T01:38:51.911Z,8.59
2022-12-03T01:41:19.295Z,8.06
2022-12-03T01:43:46.808Z,7.93
2022-12-03T01:46:19.492Z,8.68
2022-12-03T01:48:47.181Z,7.36
2022-12-03T01:51:14.713Z,8.04
2022-12-03T01:53:42.079Z,7.76
2022-12-03T01:56:12.045Z,7.15
2022-12-03T01:58:39.374Z,8.17
2022-12-03T02:01:17.684Z,7.46
2022-12-03T02:03:45.732Z,7.37
2022-12-03T02:06:17.437Z,7.14
2022-12-03T02:08:44.922Z,6.68
2022-12-03T02:11:32.551Z,7.13
2022-12-03T02:14:06.377Z,7.25
2022-12-03T02:16:35.498Z,7.27
2022-12-03T02:19:02.689Z,7.65
2022-12-03T02:21:47.981Z,8.03
2022-12-03T02:24:48.191Z,7.93
2022-12-03T02:27:15.057Z,8.15
2022-12-03T02:29:41.738Z,7.29
2022-12-03T02:32:08.594Z,7.51
2022-12-03T02:34:36.626Z,7.99
2022-12-03T02:37:03.343Z,8.18
2022-12-03T02:39:32.239Z,8.69
2022-12-03T02:42:17.497Z,8.45
2022-12-03T02:44:44.427Z,8.19
2022-12-03T02:47:11.454Z,8.86
2022-12-03T02:49:38.331Z,8.76
2022-12-03T02:52:04.985Z,7.93
2022-12-03T02:54:31.902Z,7.06
2022-12-03T02:56:58.854Z,8.14
2022-12-03T02:59:25.841Z,7.86
2022-12-03T03:01:52.731Z,8.11
2022-12-03T03:04:19.711Z,8.47
2022-12-03T03:06:47.027Z,8.28
2022-12-03T03:09:13.963Z,7.74
2022-12-03T03:11:40.874Z,8.68
2022-12-03T03:14:07.737Z,8.05
2022-12-03T03:16:34.916Z,7.88
2022-12-03T03:19:02.340Z,8.20
2022-12-03T03:21:29.240Z,7.30
2022-12-03T03:23:56.120Z,7.44
2022-12-03T03:26:23.136Z,7.88
2022-12-03T03:28:51.837Z,7.32
2022-12-03T03:31:22.158Z,8.04
2022-12-03T03:33:50.231Z,7.23
2022-12-03T03:36:17.443Z,7.24
2022-12-03T03:38:44.370Z,8.29
2022-12-03T03:41:11.633Z,8.14
2022-12-03T03:43:39.236Z,7.49
2022-12-03T03:46:07.069Z,7.50
2022-12-03T03:48:35.270Z,7.34
2022-12-03T03:51:09.610Z,7.42
2022-12-03T03:53:42.656Z,7.07
2022-12-03T03:56:10.165Z,6.81
2022-12-03T03:58:37.928Z,7.62
2022-12-03T04:01:04.901Z,7.01
2022-12-03T04:03:31.784Z,7.96
2022-12-03T04:05:58.498Z,7.19
2022-12-03T04:08:25.419Z,7.10
2022-12-03T04:11:10.863Z,7.35
2022-12-03T04:13:37.743Z,7.13
2022-12-03T04:16:04.806Z,7.49
2022-12-03T04:18:43.859Z,7.65
2022-12-03T04:21:34.962Z,8.20
2022-12-03T04:24:02.169Z,8.10
2022-12-03T04:26:47.801Z,7.67
2022-12-03T04:29:14.816Z,7.03
2022-12-03T04:32:00.878Z,8.28
2022-12-03T04:34:46.287Z,7.78
2022-12-03T04:37:13.267Z,7.62
2022-12-03T04:39:40.332Z,7.84
2022-12-03T04:42:07.538Z,8.25
2022-12-03T04:44:36.553Z,8.29
2022-12-03T04:47:20.389Z,8.81
2022-12-03T04:49:49.833Z,8.03
2022-12-03T04:52:18.657Z,7.48
2022-12-03T04:54:45.728Z,7.99
2022-12-03T04:57:12.999Z,7.16
2022-12-03T04:59:40.130Z,7.24
2022-12-03T05:02:07.450Z,7.28
2022-12-03T05:04:34.620Z,7.45
2022-12-03T05:07:01.514Z,6.73
2022-12-03T05:09:28.371Z,6.45
2022-12-03T05:11:55.036Z,6.01
2022-12-03T05:14:21.987Z,6.83
2022-12-03T05:16:49.003Z,6.97
2022-12-03T05:19:15.929Z,7.23
2022-12-03T05:21:42.767Z,7.43
2022-12-03T05:24:09.465Z,7.05
2022-12-03T05:26:36.318Z,7.21
2022-12-03T05:29:02.970Z,7.37
2022-12-03T05:31:29.927Z,6.96
2022-12-03T05:33:56.857Z,7.01
2022-12-03T05:36:25.483Z,7.74
2022-12-03T05:38:52.643Z,7.51
2022-12-03T05:41:38.031Z,6.79
2022-12-03T05:44:04.983Z,6.60
2022-12-03T05:46:34.227Z,7.17
2022-12-03T05:49:01.206Z,6.59
2022-12-03T05:51:28.196Z,6.88
2022-12-03T05:53:54.879Z,7.57
2022-12-03T05:56:21.723Z,5.96
2022-12-03T05:58:48.407Z,7.08
2022-12-03T06:01:15.311Z,6.35
2022-12-03T06:03:42.307Z,6.73
2022-12-03T06:06:09.259Z,6.80
2022-12-03T06:08:36.145Z,6.06
2022-12-03T06:11:03.047Z,6.34
2022-12-03T06:13:29.888Z,5.69
2022-12-03T06:15:56.648Z,6.11
2022-12-03T06:18:23.578Z,5.89
2022-12-03T06:20:50.431Z,6.79
2022-12-03T06:23:17.125Z,6.49
2022-12-03T06:25:43.986Z,5.92
2022-12-03T06:28:10.668Z,6.65
2022-12-03T06:30:40.185Z,6.36
2022-12-03T06:33:07.111Z,5.41
2022-12-03T06:35:33.983Z,5.14
2022-12-03T06:38:00.996Z,5.70
2022-12-03T06:40:27.866Z,7.09
2022-12-03T06:42:54.529Z,5.49
2022-12-03T06:45:21.469Z,6.02
2022-12-03T06:47:48.367Z,6.03
2022-12-03T06:50:15.290Z,5.67
2022-12-03T06:52:42.164Z,5.86
2022-12-03T06:55:09.687Z,5.88
2022-12-03T06:57:36.574Z,6.19
2022-12-03T07:00:06.481Z,6.34
2022-12-03T07:02:33.484Z,5.32
2022-12-03T07:05:00.417Z,5.17
2022-12-03T07:07:27.151Z,5.87
2022-12-03T07:09:54.210Z,5.18
2022-12-03T07:12:21.087Z,6.18
2022-12-03T07:14:47.918Z,5.86
2022-12-03T07:17:14.630Z,5.40
2022-12-03T07:19:41.482Z,5.70
2022-12-03T07:22:08.164Z,5.56
2022-12-03T07:24:35.020Z,5.79
2022-12-03T07:27:01.874Z,5.79
2022-12-03T07:29:28.575Z,5.21
2022-12-03T07:31:55.525Z,6.05
2022-12-03T07:34:22.433Z,6.01
2022-12-03T07:36:49.207Z,5.91
2022-12-03T07:39:16.133Z,5.93
2022-12-03T07:41:42.967Z,5.54
2022-12-03T07:44:14.335Z,5.49
2022-12-03T07:46:43.017Z,5.78
2022-12-03T07:49:10.125Z,5.86
2022-12-03T07:51:37.052Z,5.44
2022-12-03T07:54:04.383Z,5.67
2022-12-03T07:56:31.269Z,5.45
2022-12-03T07:58:58.128Z,6.81
2022-12-03T08:01:24.877Z,4.99
2022-12-03T08:03:51.809Z,5.23
2022-12-03T08:06:18.693Z,5.11
2022-12-03T08:08:45.658Z,5.09
2022-12-03T08:11:15.111Z,5.27
2022-12-03T08:13:42.041Z,4.43
2022-12-03T08:16:18.415Z,5.19
2022-12-03T08:18:46.495Z,5.40
2022-12-03T08:21:14.984Z,5.82
2022-12-03T08:23:42.018Z,4.58
2022-12-03T08:26:20.942Z,5.01
2022-12-03T08:28:47.907Z,4.53
2022-12-03T08:31:26.830Z,5.33
2022-12-03T08:34:14.287Z,4.65
2022-12-03T08:36:41.174Z,5.36
2022-12-03T08:39:22.978Z,4.55
2022-12-03T08:42:33.981Z,4.64
2022-12-03T08:45:30.427Z,4.86
2022-12-03T08:47:58.664Z,4.20
2022-12-03T08:50:31.100Z,5.63
2022-12-03T08:53:25.980Z,4.41
2022-12-03T08:55:54.378Z,4.44
2022-12-03T08:58:21.163Z,4.53
2022-12-03T09:00:47.932Z,4.71
2022-12-03T09:03:17.162Z,4.81
2022-12-03T09:05:44.049Z,5.33
2022-12-03T09:08:10.977Z,5.00
2022-12-03T09:10:38.844Z,5.34
2022-12-03T09:13:05.697Z,5.47
2022-12-03T09:15:32.673Z,5.14
2022-12-03T09:17:59.550Z,4.72
2022-12-03T09:20:26.430Z,5.02
2022-12-03T09:22:53.311Z,5.80
2022-12-03T09:25:20.206Z,5.09
2022-12-03T09:27:47.054Z,5.62
2022-12-03T09:30:13.855Z,5.41
2022-12-03T09:32:40.716Z,5.59
2022-12-03T09:35:07.838Z,5.23
2022-12-03T09:37:34.694Z,5.43
2022-12-03T09:40:01.370Z,5.68
2022-12-03T09:42:28.522Z,5.05
2022-12-03T09:44:55.939Z,5.75
2022-12-03T09:47:25.771Z,5.66
2022-12-03T09:49:53.239Z,5.69
2022-12-03T09:52:25.389Z,5.60
2022-12-03T09:54:53.834Z,5.59
2022-12-03T09:57:21.099Z,5.47
2022-12-03T09:59:48.007Z,4.72
2022-12-03T10:02:29.613Z,5.14
2022-12-03T10:04:57.912Z,5.77
2022-12-03T10:07:25.851Z,5.59
2022-12-03T10:09:53.547Z,5.73
2022-12-03T10:12:23.687Z,6.03
2022-12-03T10:14:50.935Z,6.18
2022-12-03T10:17:17.970Z,5.58
2022-12-03T10:19:45.217Z,6.20
2022-12-03T10:22:12.123Z,5.45
2022-12-03T10:24:39.320Z,6.18
2022-12-03T10:27:24.432Z,5.98
2022-12-03T10:29:56.354Z,6.37
2022-12-03T10:32:45.935Z,6.83
2022-12-03T10:35:18.715Z,6.46
2022-12-03T10:38:01.869Z,6.36
2022-12-03T10:40:32.768Z,5.76
2022-12-03T10:43:18.088Z,6.00
2022-12-03T10:46:04.855Z,5.99
2022-12-03T10:48:31.860Z,5.82
2022-12-03T10:51:07.152Z,6.20
2022-12-03T10:53:35.810Z,6.77
2022-12-03T10:56:05.370Z,6.71
2022-12-03T10:58:36.072Z,6.45
2022-12-03T11:01:06.504Z,6.89
2022-12-03T11:03:37.182Z,6.60
2022-12-03T11:06:04.248Z,5.91
2022-12-03T11:08:34.025Z,5.57
2022-12-03T11:11:00.820Z,6.63
2022-12-03T11:13:30.575Z,6.35
2022-12-03T11:15:57.941Z,7.17
2022-12-03T11:18:37.122Z,7.05
2022-12-03T11:21:08.136Z,6.35
2022-12-03T11:23:47.318Z,5.45
2022-12-03T11:26:27.334Z,5.97
2022-12-03T11:28:56.818Z,6.23
2022-12-03T11:31:40.869Z,6.25
2022-12-03T11:34:20.540Z,5.92
2022-12-03T11:37:13.015Z,6.61
2022-12-03T11:39:49.989Z,5.50
2022-12-03T11:42:25.918Z,6.41
2022-12-03T11:45:04.881Z,6.71
2022-12-03T11:47:34.722Z,5.80
2022-12-03T11:50:01.699Z,7.06
2022-12-03T11:52:38.775Z,6.05
2022-12-03T11:55:19.118Z,6.11
2022-12-03T11:57:46.222Z,5.84
2022-12-03T12:00:19.854Z,6.48
2022-12-03T12:02:46.789Z,6.18
2022-12-03T12:05:39.718Z,5.71
2022-12-03T12:08:18.945Z,6.61
2022-12-03T12:10:49.823Z,6.34
2022-12-03T12:13:32.111Z,6.00
2022-12-03T12:16:00.163Z,5.97
2022-12-03T12:18:41.904Z,5.91
2022-12-03T12:21:43.129Z,5.98
2022-12-03T12:24:30.415Z,5.76
2022-12-03T12:27:01.905Z,6.46
2022-12-03T12:29:28.892Z,6.21
2022-12-03T12:32:11.175Z,6.28
2022-12-03T12:34:39.604Z,6.06
2022-12-03T12:37:14.851Z,6.70
2022-12-03T12:39:41.856Z,6.07
2022-12-03T12:42:30.400Z,6.28
2022-12-03T12:45:22.861Z,6.23
2022-12-03T12:48:09.953Z,6.32
2022-12-03T12:50:41.886Z,7.27
2022-12-03T12:53:12.995Z,6.03
2022-12-03T12:55:40.207Z,5.79
2022-12-03T12:58:19.595Z,5.88
2022-12-03T13:00:51.325Z,6.72
2022-12-03T13:03:21.835Z,6.81
2022-12-03T13:05:50.203Z,5.50
2022-12-03T13:08:39.263Z,5.70
2022-12-03T13:11:06.678Z,6.21
2022-12-03T13:13:44.258Z,6.22
2022-12-03T13:16:27.140Z,6.59
2022-12-03T13:18:55.927Z,6.75
2022-12-03T13:21:39.758Z,6.80
2022-12-03T13:24:38.677Z,7.42
2022-12-03T13:27:17.572Z,6.92
2022-12-03T13:29:45.647Z,7.08
2022-12-03T13:32:16.557Z,7.37
2022-12-03T13:34:44.789Z,6.71
2022-12-03T13:37:18.853Z,7.19
2022-12-03T13:39:53.508Z,7.14
2022-12-03T13:42:46.732Z,6.25
2022-12-03T13:45:16.559Z,6.39
2022-12-03T13:47:51.221Z,7.00
2022-12-03T13:50:39.392Z,6.51
2022-12-03T13:53:19.471Z,6.53
2022-12-03T13:55:50.429Z,7.13
2022-12-03T13:58:17.304Z,5.95
2022-12-03T14:00:44.041Z,6.37
2022-12-03T14:03:10.984Z,6.02
2022-12-03T14:05:37.901Z,5.80
2022-12-03T14:08:06.315Z,5.53
2022-12-03T14:10:33.447Z,5.46
2022-12-03T14:13:00.325Z,5.55
2022-12-03T14:15:27.011Z,6.07
2022-12-03T14:17:53.976Z,5.61
2022-12-03T14:20:22.831Z,5.89
2022-12-03T14:22:49.734Z,5.85
2022-12-03T14:25:16.641Z,6.21
2022-12-03T14:27:43.536Z,5.74
2022-12-03T14:30:11.068Z,6.27
2022-12-03T14:32:37.909Z,5.62
2022-12-03T14:35:09.698Z,5.91
2022-12-03T14:37:37.222Z,5.56
2022-12-03T14:40:07.249Z,6.47
2022-12-03T14:42:34.116Z,5.80
2022-12-03T14:45:00.764Z,6.33
2022-12-03T14:47:27.669Z,6.06
2022-12-03T14:49:54.794Z,5.92
2022-12-03T14:52:21.835Z,6.02
2022-12-03T14:54:48.735Z,6.08
2022-12-03T14:57:15.916Z,6.33
2022-12-03T14:59:43.666Z,6.44
2022-12-03T15:02:11.578Z,6.29
2022-12-03T15:04:39.698Z,5.45
2022-12-03T15:07:07.606Z,6.19
2022-12-03T15:09:34.750Z,6.09
2022-12-03T15:12:01.682Z,5.73
2022-12-03T15:14:28.583Z,6.15
2022-12-03T15:16:55.693Z,6.64
2022-12-03T15:19:23.595Z,6.24
2022-12-03T15:21:50.475Z,6.67
2022-12-03T15:24:17.368Z,6.53
2022-12-03T15:26:44.288Z,6.90
2022-12-03T15:29:11.323Z,6.46
2022-12-03T15:31:38.196Z,6.61
2022-12-03T15:34:05.403Z,6.48
2022-12-03T15:36:32.239Z,6.27
2022-12-03T15:38:58.995Z,7.17
2022-12-03T15:41:29.332Z,6.75
2022-12-03T15:43:58.405Z,6.46
2022-12-03T15:46:26.313Z,6.29
2022-12-03T15:48:53.507Z,5.75
2022-12-03T15:51:20.396Z,6.47
2022-12-03T15:53:47.350Z,5.91
2022-12-03T15:56:14.199Z,6.04
2022-12-03T15:58:41.035Z,5.70
2022-12-03T16:01:09.514Z,5.97
2022-12-03T16:03:36.773Z,5.55
2022-12-03T16:06:03.954Z,6.31
2022-12-03T16:08:30.987Z,5.90
2022-12-03T16:10:58.063Z,6.14
2022-12-03T16:13:25.019Z,6.25
2022-12-03T16:15:51.943Z,6.58
2022-12-03T16:18:18.836Z,6.38
2022-12-03T16:20:46.495Z,6.46
2022-12-03T16:23:13.441Z,6.19
2022-12-03T16:25:40.322Z,6.08
2022-12-03T16:28:07.228Z,6.63
2022-12-03T16:30:36.352Z,6.60
2022-12-03T16:33:03.351Z,7.57
2022-12-03T16:35:30.192Z,8.47
2022-12-03T16:37:56.828Z,7.68
2022-12-03T16:40:23.729Z,8.30
2022-12-03T16:42:50.609Z,8.38
2022-12-03T16:45:40.819Z,7.43
2022-12-03T16:48:07.656Z,7.14
2022-12-03T16:50:37.331Z,6.68
2022-12-03T16:53:04.279Z,7.02
2022-12-03T16:55:31.151Z,7.16
2022-12-03T16:57:58.024Z,6.50
2022-12-03T17:00:26.948Z,6.63
2022-12-03T17:02:53.878Z,6.87
2022-12-03T17:05:20.795Z,6.77
2022-12-03T17:07:47.510Z,6.33
2022-12-03T17:10:14.545Z,6.33
2022-12-03T17:13:08.942Z,6.17
2022-12-03T17:15:28.521Z,6.50
2022-12-03T17:17:55.608Z,6.72
2022-12-03T17:20:22.571Z,7.28
2022-12-03T17:22:49.465Z,7.51
2022-12-03T17:25:16.875Z,7.36
2022-12-03T17:27:45.580Z,6.61
2022-12-03T17:30:13.332Z,6.39
2022-12-03T17:32:40.375Z,6.60
2022-12-03T17:35:07.836Z,6.31
2022-12-03T17:37:35.127Z,6.34
2022-12-03T17:40:02.549Z,6.55
2022-12-03T17:42:29.420Z,6.05
2022-12-03T17:44:56.369Z,6.32
2022-12-03T17:47:23.199Z,6.56
2022-12-03T17:49:52.260Z,6.82
2022-12-03T17:52:19.355Z,6.73
2022-12-03T17:57:33.068Z,6.62
2022-12-03T17:59:59.823Z,6.12
2022-12-03T18:02:26.648Z,7.02
2022-12-03T18:04:53.348Z,6.93
2022-12-03T18:07:20.285Z,6.18
2022-12-03T18:09:47.238Z,6.20
2022-12-03T18:12:14.088Z,6.68
2022-12-03T18:14:40.814Z,6.23
2022-12-03T18:17:07.684Z,6.33
2022-12-03T18:19:34.594Z,6.42
2022-12-03T18:22:01.459Z,6.34
2022-12-03T18:24:28.120Z,6.40
2022-12-03T18:26:55.027Z,6.56
2022-12-03T18:29:21.878Z,6.80
2022-12-03T18:44:56.233Z,7.13
2022-12-03T18:47:26.596Z,6.57
2022-12-03T18:49:54.079Z,5.79
2022-12-03T18:52:23.162Z,6.72
2022-12-03T18:54:50.031Z,7.16
2022-12-03T18:57:16.749Z,7.54
2022-12-03T18:59:43.667Z,7.48
2022-12-03T19:02:53.868Z,7.35
2022-12-03T19:05:07.033Z,7.74
2022-12-03T19:07:33.995Z,8.33
2022-12-03T19:10:00.954Z,7.42
2022-12-03T19:12:27.955Z,7.48
2022-12-03T19:14:54.847Z,7.54
2022-12-03T19:17:21.896Z,7.18
2022-12-03T19:19:48.820Z,7.89
2022-12-03T19:22:15.809Z,7.33
2022-12-03T19:27:09.911Z,8.03
2022-12-03T19:29:36.793Z,7.96
2022-12-03T19:32:04.014Z,7.25
2022-12-03T19:34:30.957Z,7.92
2022-12-03T19:36:57.820Z,8.50
2022-12-03T19:39:25.009Z,7.76
2022-12-03T19:41:51.911Z,6.88
2022-12-03T19:44:19.357Z,6.96
2022-12-03T19:46:46.252Z,7.51
2022-12-03T19:49:13.127Z,6.99
2022-12-03T19:51:40.003Z,7.47
2022-12-03T19:54:10.271Z,7.08
2022-12-03T19:56:37.537Z,6.82
2022-12-03T19:59:05.342Z,7.09
2022-12-03T20:01:34.356Z,6.86
2022-12-03T20:04:03.216Z,6.24
2022-12-03T20:06:32.584Z,6.85
2022-12-03T20:09:06.663Z,6.62
2022-12-03T20:11:34.812Z,6.93
2022-12-03T20:14:05.138Z,6.93
2022-12-03T20:16:32.258Z,6.61
2022-12-03T20:19:01.481Z,7.39
2022-12-03T20:21:30.023Z,6.96
2022-12-03T20:23:56.907Z,7.17
2022-12-03T20:26:24.866Z,6.68
2022-12-03T20:28:54.197Z,7.08
2022-12-03T20:31:23.151Z,7.04
2022-12-03T20:33:51.941Z,7.21
2022-12-03T20:36:20.839Z,6.76
2022-12-03T20:38:47.754Z,6.55
2022-12-03T20:41:18.596Z,6.29
2022-12-03T20:43:45.976Z,6.29
2022-12-03T20:46:25.626Z,6.79
2022-12-03T20:48:54.211Z,6.53
2022-12-03T20:51:22.977Z,6.67
2022-12-03T20:53:49.987Z,6.98
2022-12-03T20:56:20.358Z,6.71
2022-12-03T20:58:51.138Z,6.87
2022-12-03T21:01:19.334Z,6.80
2022-12-03T21:03:47.247Z,6.73
2022-12-03T21:06:14.968Z,7.09
2022-12-03T21:08:43.083Z,7.19
2022-12-03T21:11:12.101Z,7.31
2022-12-03T21:13:41.759Z,7.42
2022-12-03T21:16:10.612Z,7.15
2022-12-03T21:18:37.771Z,7.25
2022-12-03T21:21:05.730Z,8.21
2022-12-03T21:23:33.559Z,8.04
2022-12-03T21:26:17.537Z,8.79
2022-12-03T21:28:50.283Z,8.51
2022-12-03T21:31:19.703Z,8.08
2022-12-03T21:33:47.021Z,8.24
2022-12-03T21:36:16.101Z,8.54
2022-12-03T21:38:44.434Z,8.01
2022-12-03T21:41:12.408Z,8.15
2022-12-03T21:43:39.318Z,7.50
2022-12-03T21:47:11.823Z,7.86
2022-12-03T21:48:58.104Z,7.37
2022-12-03T21:51:24.757Z,7.91
2022-12-03T21:53:51.677Z,7.44
2022-12-03T21:56:19.604Z,7.23
2022-12-03T21:58:46.982Z,7.82
2022-12-03T22:01:19.950Z,7.85
2022-12-03T22:03:47.263Z,7.84
2022-12-03T22:06:14.557Z,7.14
2022-12-03T22:08:41.795Z,7.96
2022-12-03T22:11:13.330Z,7.49
2022-12-03T22:13:41.198Z,7.22
2022-12-03T22:16:11.127Z,6.38
2022-12-03T22:18:38.515Z,6.53
2022-12-03T22:21:07.219Z,6.31
2022-12-03T22:23:34.428Z,6.26
2022-12-03T22:26:03.831Z,6.20
2022-12-03T22:28:30.825Z,6.75
2022-12-03T22:30:57.779Z,6.68
2022-12-03T22:33:25.214Z,6.85
2022-12-03T22:36:00.336Z,6.26
2022-12-03T22:38:29.085Z,6.87
2022-12-03T22:40:57.085Z,6.06
2022-12-03T22:43:24.741Z,6.67
2022-12-03T22:45:55.671Z,6.55
2022-12-03T22:48:23.810Z,6.76
2022-12-03T22:50:51.832Z,6.57
2022-12-03T22:53:19.270Z,7.04
2022-12-03T22:55:56.389Z,6.25
2022-12-03T22:58:23.410Z,6.45
2022-12-03T23:00:50.484Z,6.28
2022-12-03T23:03:17.678Z,6.14
2022-12-03T23:05:44.830Z,6.71
2022-12-03T23:08:15.970Z,6.78
2022-12-03T23:10:44.843Z,6.83
2022-12-03T23:13:12.302Z,6.26
2022-12-03T23:15:47.504Z,6.31
2022-12-03T23:18:14.571Z,5.68
2022-12-03T23:20:52.543Z,5.76
2022-12-03T23:23:20.854Z,5.97
2022-12-03T23:26:05.547Z,6.16
2022-12-03T23:28:34.426Z,6.00
2022-12-03T23:31:01.494Z,6.18
2022-12-03T23:33:28.927Z,6.33
2022-12-03T23:35:55.760Z,6.26
2022-12-03T23:38:22.562Z,6.71
2022-12-03T23:40:49.827Z,5.80
2022-12-03T23:43:16.793Z,5.75
2022-12-03T23:45:43.672Z,6.03
2022-12-03T23:48:10.625Z,6.14
2022-12-03T23:50:41.504Z,5.91
2022-12-03T23:53:09.150Z,5.99
2022-12-03T23:55:40.004Z,6.08
2022-12-03T23:58:06.892Z,6.29
